createdAt,value
2023-01-30T00:01:21.741Z,1.40
2023-01-30T00:03:50.060Z,1.33
2023-01-30T00:06:18.861Z,1.40
2023-01-30T00:08:47.533Z,1.20
2023-01-30T00:11:18.148Z,1.38
2023-01-30T00:13:47.653Z,1.33
2023-01-30T00:16:16.445Z,1.15
2023-01-30T00:18:45.903Z,1.30
2023-01-30T00:21:15.929Z,1.50
2023-01-30T00:23:44.684Z,1.45
2023-01-30T00:26:13.929Z,1.50
2023-01-30T00:28:42.343Z,1.00
2023-01-30T00:31:10.874Z,1.20
2023-01-30T00:33:40.530Z,1.30
2023-01-30T00:36:09.319Z,1.25
2023-01-30T00:38:37.756Z,1.20
2023-01-30T00:41:06.463Z,0.82
2023-01-30T00:43:53.109Z,1.20
2023-01-30T00:46:53.826Z,1.35
2023-01-30T00:49:22.258Z,0.80
2023-01-30T00:51:50.588Z,1.30
2023-01-30T00:54:18.840Z,0.98
2023-01-30T00:56:47.112Z,0.90
2023-01-30T00:59:15.429Z,1.27
2023-01-30T01:01:43.914Z,1.20
2023-01-30T01:04:12.746Z,1.20
2023-01-30T01:06:41.500Z,1.10
2023-01-30T01:09:09.849Z,1.48
2023-01-30T01:11:38.328Z,1.05
2023-01-30T01:14:07.450Z,1.08
2023-01-30T01:16:36.942Z,1.10
2023-01-30T01:19:05.873Z,1.42
2023-01-30T01:21:34.222Z,1.20
2023-01-30T01:24:02.587Z,1.02
2023-01-30T01:26:31.343Z,1.20
2023-01-30T01:29:00.489Z,1.33
2023-01-30T01:31:28.944Z,1.10
2023-01-30T01:33:58.164Z,1.40
2023-01-30T01:36:52.027Z,1.20
2023-01-30T01:39:14.762Z,0.90
2023-01-30T01:41:43.061Z,0.70
2023-01-30T01:44:13.617Z,0.80
2023-01-30T01:46:52.097Z,0.93
2023-01-30T01:49:30.632Z,1.20
2023-01-30T01:52:06.889Z,0.80
2023-01-30T01:54:37.922Z,1.05
2023-01-30T01:57:12.889Z,0.80
2023-01-30T01:59:47.584Z,0.93
2023-01-30T02:05:03.229Z,1.20
2023-01-30T02:07:41.245Z,1.17
2023-01-30T02:10:15.031Z,0.90
2023-01-30T02:12:44.893Z,0.80
2023-01-30T02:15:13.626Z,0.75
2023-01-30T02:17:42.002Z,0.68
2023-01-30T02:20:28.501Z,0.70
2023-01-30T02:23:21.271Z,0.70
2023-01-30T02:26:32.307Z,0.68
2023-01-30T02:29:24.059Z,0.93
2023-01-30T02:31:55.190Z,0.80
2023-01-30T02:34:34.764Z,0.80
2023-01-30T02:37:23.103Z,0.70
2023-01-30T02:40:12.358Z,0.90
2023-01-30T02:42:57.985Z,0.90
2023-01-30T02:45:45.030Z,1.10
2023-01-30T02:48:28.398Z,1.00
2023-01-30T02:51:15.091Z,0.90
2023-01-30T02:53:43.378Z,0.88
2023-01-30T02:56:11.661Z,0.90
2023-01-30T02:58:45.496Z,0.50
2023-01-30T03:01:47.808Z,0.63
2023-01-30T03:04:50.128Z,0.80
2023-01-30T03:07:26.851Z,0.60
2023-01-30T03:10:10.003Z,0.70
2023-01-30T03:12:52.844Z,0.70
2023-01-30T03:15:41.860Z,0.80
2023-01-30T03:18:11.256Z,0.50
2023-01-30T03:20:41.217Z,0.70
2023-01-30T03:23:10.000Z,0.80
2023-01-30T03:25:40.570Z,1.00
2023-01-30T03:28:10.738Z,1.23
2023-01-30T03:30:39.089Z,1.10
2023-01-30T03:33:07.495Z,1.15
2023-01-30T03:35:36.032Z,1.08
2023-01-30T03:38:04.535Z,0.90
2023-01-30T03:40:33.377Z,0.75
2023-01-30T03:43:01.733Z,1.10
2023-01-30T03:45:30.075Z,1.08
2023-01-30T03:47:58.398Z,0.77
2023-01-30T03:50:26.708Z,0.90
2023-01-30T03:52:55.511Z,0.90
2023-01-30T03:55:23.888Z,0.98
2023-01-30T03:57:56.671Z,0.80
2023-01-30T04:00:25.046Z,0.85
2023-01-30T04:02:54.640Z,0.70
2023-01-30T04:05:22.954Z,0.70
2023-01-30T04:07:52.071Z,0.75
2023-01-30T04:10:20.935Z,1.10
2023-01-30T04:12:49.605Z,0.90
2023-01-30T04:15:18.277Z,0.90
2023-01-30T04:17:48.701Z,1.52
2023-01-30T04:20:17.463Z,1.10
2023-01-30T04:22:46.060Z,1.88
2023-01-30T04:25:14.426Z,1.52
2023-01-30T04:27:42.727Z,1.17
2023-01-30T04:30:11.614Z,1.00
2023-01-30T04:32:39.852Z,1.15
2023-01-30T04:35:08.536Z,1.00
2023-01-30T04:37:36.786Z,1.08
2023-01-30T04:40:05.574Z,0.90
2023-01-30T04:42:33.885Z,1.52
2023-01-30T04:45:02.177Z,1.00
2023-01-30T04:47:30.456Z,1.30
2023-01-30T04:49:58.823Z,0.90
2023-01-30T04:52:27.076Z,1.45
2023-01-30T04:54:55.346Z,1.70
2023-01-30T04:57:23.568Z,1.70
2023-01-30T04:59:51.828Z,1.60
2023-01-30T05:02:21.817Z,1.50
2023-01-30T05:04:51.672Z,1.98
2023-01-30T05:07:20.007Z,1.90
2023-01-30T05:09:48.374Z,1.65
2023-01-30T05:12:16.622Z,2.35
2023-01-30T05:14:44.969Z,2.03
2023-01-30T05:17:13.285Z,1.92
2023-01-30T05:19:41.619Z,1.85
2023-01-30T05:22:09.997Z,1.67
2023-01-30T05:24:38.264Z,1.70
2023-01-30T05:27:06.966Z,1.70
2023-01-30T05:29:35.247Z,1.80
2023-01-30T05:32:04.657Z,1.70
2023-01-30T05:34:32.942Z,1.70
2023-01-30T05:37:01.194Z,1.73
2023-01-30T05:39:29.455Z,1.83
2023-01-30T05:41:57.753Z,1.70
2023-01-30T05:44:26.071Z,1.60
2023-01-30T05:46:54.432Z,1.67
2023-01-30T05:49:22.735Z,1.83
2023-01-30T05:51:51.710Z,1.73
2023-01-30T05:54:20.056Z,1.67
2023-01-30T05:56:51.401Z,1.80
2023-01-30T05:59:19.770Z,1.58
2023-01-30T06:01:48.271Z,2.13
2023-01-30T06:04:16.617Z,1.70
2023-01-30T06:06:44.894Z,1.83
2023-01-30T06:09:13.303Z,1.92
2023-01-30T06:11:41.584Z,1.85
2023-01-30T06:14:09.929Z,2.00
2023-01-30T06:16:38.293Z,1.90
2023-01-30T06:19:06.612Z,2.10
2023-01-30T06:21:34.872Z,1.90
2023-01-30T06:24:03.333Z,1.75
2023-01-30T06:26:31.612Z,1.98
2023-01-30T06:28:59.956Z,2.03
2023-01-30T06:31:28.340Z,2.05
2023-01-30T06:33:56.631Z,2.08
2023-01-30T06:36:24.918Z,2.25
2023-01-30T06:38:53.247Z,2.03
2023-01-30T06:41:21.629Z,2.10
2023-01-30T06:43:50.069Z,2.08
2023-01-30T06:46:18.516Z,2.22
2023-01-30T06:48:46.913Z,1.95
2023-01-30T06:51:15.269Z,2.17
2023-01-30T06:53:43.884Z,1.90
2023-01-30T06:56:12.180Z,1.70
2023-01-30T06:58:40.521Z,2.03
2023-01-30T07:01:08.856Z,2.15
2023-01-30T07:03:37.175Z,1.90
2023-01-30T07:06:05.613Z,1.85
2023-01-30T07:08:33.914Z,1.92
2023-01-30T07:11:02.264Z,1.58
2023-01-30T07:13:30.611Z,1.23
2023-01-30T07:15:58.964Z,1.23
2023-01-30T07:18:27.241Z,1.60
2023-01-30T07:20:55.563Z,0.95
2023-01-30T07:23:23.852Z,0.93
2023-01-30T07:25:52.379Z,0.98
2023-01-30T07:28:20.754Z,0.70
2023-01-30T07:30:53.486Z,0.50
2023-01-30T07:33:21.869Z,0.60
2023-01-30T07:35:50.216Z,0.73
2023-01-30T07:38:18.576Z,0.60
2023-01-30T07:40:46.919Z,0.50
2023-01-30T07:43:15.667Z,0.60
2023-01-30T07:45:49.273Z,0.60
2023-01-30T07:48:19.915Z,0.50
2023-01-30T07:50:48.561Z,0.60
2023-01-30T07:53:19.463Z,0.55
2023-01-30T07:55:47.847Z,0.50
2023-01-30T07:58:17.521Z,0.57
2023-01-30T08:00:46.664Z,0.45
2023-01-30T08:03:16.539Z,0.60
2023-01-30T08:05:47.618Z,1.02
2023-01-30T08:08:16.637Z,0.45
2023-01-30T08:10:45.396Z,0.60
2023-01-30T08:13:13.762Z,0.65
2023-01-30T08:15:42.097Z,0.50
2023-01-30T08:18:10.386Z,0.52
2023-01-30T08:20:38.722Z,0.50
2023-01-30T08:23:07.259Z,0.50
2023-01-30T08:25:36.397Z,0.50
2023-01-30T08:28:05.884Z,0.40
2023-01-30T08:30:34.352Z,0.32
2023-01-30T08:33:02.627Z,0.40
2023-01-30T08:35:30.949Z,0.60
2023-01-30T08:37:59.295Z,0.50
2023-01-30T08:40:27.665Z,0.50
2023-01-30T08:42:56.011Z,0.50
2023-01-30T08:45:24.475Z,0.52
2023-01-30T08:47:52.749Z,0.45
2023-01-30T08:50:21.325Z,0.50
2023-01-30T08:52:50.118Z,0.40
2023-01-30T08:55:19.349Z,0.40
2023-01-30T08:57:47.847Z,0.40
2023-01-30T09:00:17.390Z,0.43
2023-01-30T09:02:49.094Z,0.40
2023-01-30T09:05:17.483Z,0.50
2023-01-30T09:07:46.245Z,0.60
2023-01-30T09:10:14.754Z,0.57
2023-01-30T09:12:43.191Z,0.47
2023-01-30T09:15:12.386Z,0.38
2023-01-30T09:17:40.870Z,0.60
2023-01-30T09:20:10.493Z,0.57
2023-01-30T09:22:39.287Z,0.40
2023-01-30T09:25:09.262Z,0.40
2023-01-30T09:27:38.035Z,0.47
2023-01-30T09:30:07.729Z,0.30
2023-01-30T09:32:38.336Z,0.52
2023-01-30T09:35:07.329Z,0.30
2023-01-30T09:37:36.047Z,0.57
2023-01-30T09:40:05.417Z,0.63
2023-01-30T09:42:55.215Z,0.50
2023-01-30T09:45:38.595Z,0.57
2023-01-30T09:48:19.680Z,0.30
2023-01-30T09:51:00.502Z,0.50
2023-01-30T09:53:38.402Z,0.50
2023-01-30T09:56:07.455Z,0.50
2023-01-30T09:59:00.544Z,0.60
2023-01-30T10:01:51.888Z,0.60
2023-01-30T10:04:31.933Z,0.50
2023-01-30T10:07:43.865Z,0.47
2023-01-30T10:10:43.853Z,0.40
2023-01-30T10:13:44.203Z,0.60
2023-01-30T10:16:37.174Z,0.95
2023-01-30T10:19:36.487Z,0.50
2023-01-30T10:22:37.800Z,0.50
2023-01-30T10:25:21.838Z,0.30
2023-01-30T10:28:00.809Z,0.50
2023-01-30T10:30:29.478Z,0.50
2023-01-30T10:33:07.254Z,0.35
2023-01-30T10:35:42.775Z,0.52
2023-01-30T10:38:51.225Z,0.50
2023-01-30T10:41:37.685Z,0.40
2023-01-30T10:44:15.470Z,0.40
2023-01-30T10:47:02.215Z,0.50
2023-01-30T10:49:37.897Z,0.40
2023-01-30T10:52:20.997Z,0.40
2023-01-30T10:55:01.790Z,0.30
2023-01-30T10:57:57.838Z,0.40
2023-01-30T11:00:57.621Z,0.35
2023-01-30T11:03:37.657Z,0.55
2023-01-30T11:06:25.830Z,0.57
2023-01-30T11:08:55.730Z,0.40
2023-01-30T11:11:45.438Z,0.40
2023-01-30T11:14:14.349Z,0.30
2023-01-30T11:17:03.527Z,0.40
2023-01-30T11:19:35.998Z,0.40
2023-01-30T11:22:07.977Z,0.55
2023-01-30T11:24:46.854Z,0.52
2023-01-30T11:27:31.094Z,0.30
2023-01-30T11:30:17.941Z,0.38
2023-01-30T11:32:50.112Z,0.50
2023-01-30T11:35:25.605Z,0.47
2023-01-30T11:37:54.418Z,0.30
2023-01-30T11:40:32.031Z,0.40
2023-01-30T11:43:05.583Z,0.50
2023-01-30T11:45:47.456Z,0.40
2023-01-30T11:48:33.121Z,0.40
2023-01-30T11:51:12.031Z,0.30
2023-01-30T11:53:46.931Z,0.43
2023-01-30T11:56:23.448Z,0.40
2023-01-30T11:59:17.669Z,0.30
2023-01-30T12:01:46.233Z,0.40
2023-01-30T12:04:15.583Z,0.40
2023-01-30T12:06:45.474Z,0.50
2023-01-30T12:09:40.749Z,0.28
2023-01-30T12:12:47.913Z,0.30
2023-01-30T12:15:28.373Z,0.22
2023-01-30T12:18:36.658Z,0.20
2023-01-30T12:21:14.966Z,0.47
2023-01-30T12:24:09.858Z,0.45
2023-01-30T12:26:49.077Z,0.40
2023-01-30T12:29:41.018Z,0.60
2023-01-30T12:32:20.641Z,0.45
2023-01-30T12:34:49.314Z,0.30
2023-01-30T12:37:35.639Z,0.50
2023-01-30T12:40:24.937Z,0.30
2023-01-30T12:43:29.878Z,0.35
2023-01-30T12:46:27.221Z,0.17
2023-01-30T12:49:11.698Z,0.40
2023-01-30T12:52:06.620Z,0.30
2023-01-30T12:54:59.007Z,0.40
2023-01-30T12:57:48.687Z,0.25
2023-01-30T13:00:27.050Z,0.30
2023-01-30T13:03:01.448Z,0.40
2023-01-30T13:05:38.870Z,0.30
2023-01-30T13:08:51.797Z,0.50
2023-01-30T13:11:47.648Z,0.25
2023-01-30T13:14:48.229Z,0.30
2023-01-30T13:17:26.246Z,0.30
2023-01-30T13:20:20.059Z,0.20
2023-01-30T13:22:57.451Z,0.30
2023-01-30T13:25:59.527Z,0.40
2023-01-30T13:28:32.890Z,0.25
2023-01-30T13:31:03.518Z,0.40
2023-01-30T13:33:36.325Z,0.32
2023-01-30T13:36:25.935Z,0.40
2023-01-30T13:39:06.250Z,0.30
2023-01-30T13:41:41.652Z,0.45
2023-01-30T13:44:30.008Z,0.43
2023-01-30T13:47:19.425Z,0.52
2023-01-30T13:50:08.897Z,0.65
2023-01-30T13:52:43.072Z,0.50
2023-01-30T13:55:17.684Z,0.50
2023-01-30T13:58:34.203Z,0.20
2023-01-30T14:01:04.907Z,0.50
2023-01-30T14:03:36.352Z,0.40
2023-01-30T14:06:26.415Z,0.50
2023-01-30T14:09:00.074Z,0.43
2023-01-30T14:11:35.742Z,0.55
2023-01-30T14:14:28.032Z,0.30
2023-01-30T14:17:09.143Z,0.40
2023-01-30T14:19:41.020Z,0.60
2023-01-30T14:22:35.163Z,0.30
2023-01-30T14:25:31.025Z,0.43
2023-01-30T14:28:02.617Z,0.40
2023-01-30T14:30:38.636Z,0.50
2023-01-30T14:33:34.316Z,0.50
2023-01-30T14:36:02.632Z,0.70
2023-01-30T14:38:35.527Z,0.30
2023-01-30T14:41:03.784Z,0.40
2023-01-30T14:43:44.507Z,0.30
2023-01-30T14:46:21.690Z,0.70
2023-01-30T14:48:59.127Z,0.47
2023-01-30T14:51:38.164Z,0.63
2023-01-30T14:54:15.512Z,0.40
2023-01-30T14:56:56.407Z,0.32
2023-01-30T14:59:42.216Z,0.22
2023-01-30T15:02:16.276Z,0.65
2023-01-30T15:05:10.993Z,0.60
2023-01-30T15:08:12.333Z,0.60
2023-01-30T15:11:07.571Z,0.70
2023-01-30T15:14:02.140Z,0.60
2023-01-30T15:16:46.775Z,0.90
2023-01-30T15:19:34.363Z,0.90
2023-01-30T15:22:40.966Z,1.25
2023-01-30T15:25:36.239Z,1.65
2023-01-30T15:28:39.476Z,1.50
2023-01-30T15:31:12.663Z,3.08
2023-01-30T15:33:52.762Z,2.75
2023-01-30T15:36:30.242Z,2.67
2023-01-30T15:39:07.174Z,1.80
2023-01-30T15:41:42.853Z,0.98
2023-01-30T15:44:14.387Z,1.00
2023-01-30T15:46:45.907Z,0.80
2023-01-30T15:49:46.370Z,0.50
2023-01-30T15:52:18.893Z,0.60
2023-01-30T15:54:54.963Z,0.60
2023-01-30T15:57:30.173Z,0.40
2023-01-30T16:00:00.728Z,0.77
2023-01-30T16:02:34.570Z,0.50
2023-01-30T16:05:16.457Z,0.60
2023-01-30T16:07:47.384Z,0.50
2023-01-30T16:10:21.831Z,0.50
2023-01-30T16:12:53.729Z,0.45
2023-01-30T16:15:35.813Z,0.40
2023-01-30T16:18:16.132Z,0.40
2023-01-30T16:21:05.701Z,0.60
2023-01-30T16:23:39.933Z,0.40
2023-01-30T16:26:13.639Z,0.50
2023-01-30T16:28:42.433Z,0.70
2023-01-30T16:31:12.682Z,0.43
2023-01-30T16:33:41.082Z,0.55
2023-01-30T16:36:21.575Z,0.50
2023-01-30T16:38:51.611Z,0.60
2023-01-30T16:41:28.674Z,0.50
2023-01-30T16:44:23.112Z,0.50
2023-01-30T16:47:21.729Z,0.45
2023-01-30T16:49:51.500Z,0.60
2023-01-30T16:52:24.151Z,0.70
2023-01-30T16:55:02.712Z,0.40
2023-01-30T16:57:37.107Z,0.60
2023-01-30T17:00:30.480Z,0.55
2023-01-30T17:03:05.238Z,0.70
2023-01-30T17:08:49.090Z,0.60
2023-01-30T17:11:38.138Z,0.47
2023-01-30T17:14:21.122Z,0.38
2023-01-30T17:17:10.890Z,0.43
2023-01-30T17:19:39.486Z,0.40
2023-01-30T17:22:18.724Z,0.57
2023-01-30T17:24:47.239Z,0.40
2023-01-30T17:27:16.919Z,0.35
2023-01-30T17:29:46.852Z,0.30
2023-01-30T17:32:16.997Z,0.40
2023-01-30T17:34:46.094Z,0.60
2023-01-30T17:37:20.687Z,0.50
2023-01-30T17:39:49.046Z,0.32
2023-01-30T17:42:22.843Z,0.38
2023-01-30T17:44:51.212Z,0.40
2023-01-30T17:47:19.546Z,0.40
2023-01-30T17:49:47.892Z,0.20
2023-01-30T17:52:16.161Z,0.50
2023-01-30T17:54:44.834Z,0.45
2023-01-30T17:57:16.553Z,0.40
2023-01-30T17:59:45.302Z,0.30
2023-01-30T18:02:14.246Z,0.50
2023-01-30T18:04:42.562Z,0.40
2023-01-30T18:07:15.471Z,0.30
2023-01-30T18:09:44.235Z,0.30
2023-01-30T18:12:12.520Z,0.40
2023-01-30T18:14:40.839Z,0.50
2023-01-30T18:17:10.515Z,0.38
2023-01-30T18:19:38.846Z,0.30
2023-01-30T18:22:07.217Z,0.40
2023-01-30T18:24:35.635Z,0.60
2023-01-30T18:27:03.953Z,0.30
2023-01-30T18:29:32.214Z,0.55
2023-01-30T18:32:05.937Z,0.45
2023-01-30T18:34:34.723Z,0.60
2023-01-30T18:37:03.013Z,0.47
2023-01-30T18:39:32.754Z,0.30
2023-01-30T18:42:02.944Z,0.50
2023-01-30T18:44:31.454Z,0.60
2023-01-30T18:46:59.701Z,0.68
2023-01-30T18:49:28.133Z,0.40
2023-01-30T18:51:56.379Z,0.60
2023-01-30T18:54:24.723Z,0.50
2023-01-30T18:56:53.008Z,0.57
2023-01-30T18:59:21.334Z,0.38
2023-01-30T19:01:49.590Z,0.30
2023-01-30T19:04:17.914Z,0.30
2023-01-30T19:06:46.452Z,0.40
2023-01-30T19:09:17.355Z,0.30
2023-01-30T19:12:04.083Z,0.35
2023-01-30T19:14:32.619Z,0.50
2023-01-30T19:17:01.392Z,0.40
2023-01-30T19:19:29.727Z,0.30
2023-01-30T19:21:58.100Z,0.30
2023-01-30T19:24:26.468Z,0.40
2023-01-30T19:26:54.787Z,0.73
2023-01-30T19:29:23.159Z,0.40
2023-01-30T19:31:51.513Z,0.40
2023-01-30T19:34:20.018Z,0.43
2023-01-30T19:36:48.452Z,0.43
2023-01-30T19:39:16.738Z,0.35
2023-01-30T19:41:45.317Z,0.50
2023-01-30T19:44:14.119Z,0.50
2023-01-30T19:46:42.525Z,0.40
2023-01-30T19:49:12.821Z,0.50
2023-01-30T19:51:42.627Z,0.40
2023-01-30T19:54:12.644Z,0.30
2023-01-30T19:56:43.278Z,0.40
2023-01-30T19:59:14.087Z,0.32
2023-01-30T20:01:42.666Z,0.50
2023-01-30T20:04:11.025Z,0.40
2023-01-30T20:06:44.222Z,0.70
2023-01-30T20:09:12.717Z,0.40
2023-01-30T20:11:42.704Z,0.50
2023-01-30T20:14:12.200Z,0.50
2023-01-30T20:16:40.600Z,0.40
2023-01-30T20:19:13.730Z,0.38
2023-01-30T20:21:42.120Z,0.40
2023-01-30T20:24:13.973Z,0.73
2023-01-30T20:26:42.917Z,0.50
2023-01-30T20:29:11.946Z,0.45
2023-01-30T20:31:40.770Z,0.50
2023-01-30T20:34:12.600Z,0.60
2023-01-30T20:36:40.899Z,0.50
2023-01-30T20:39:09.366Z,0.30
2023-01-30T20:41:38.752Z,0.40
2023-01-30T20:44:09.574Z,0.47
2023-01-30T20:46:41.938Z,0.50
2023-01-30T20:49:21.383Z,0.40
2023-01-30T20:51:52.272Z,0.50
2023-01-30T20:54:24.276Z,0.45
2023-01-30T20:56:54.682Z,0.50
2023-01-30T20:59:25.149Z,0.50
2023-01-30T21:01:54.565Z,0.65
2023-01-30T21:04:25.096Z,0.50
2023-01-30T21:06:53.569Z,0.70
2023-01-30T21:09:24.056Z,0.50
2023-01-30T21:11:53.879Z,0.50
2023-01-30T21:14:24.027Z,0.40
2023-01-30T21:16:53.424Z,0.80
2023-01-30T21:19:22.314Z,0.45
2023-01-30T21:21:54.843Z,0.50
2023-01-30T21:24:26.399Z,0.50
2023-01-30T21:26:55.863Z,0.60
2023-01-30T21:29:26.608Z,0.50
2023-01-30T21:31:56.468Z,0.43
2023-01-30T21:34:24.964Z,0.52
2023-01-30T21:37:11.566Z,0.50
2023-01-30T21:39:58.108Z,0.30
2023-01-30T21:42:45.077Z,0.60
2023-01-30T21:45:13.473Z,0.47
2023-01-30T21:47:41.828Z,0.30
2023-01-30T21:50:10.895Z,0.45
2023-01-30T21:52:39.182Z,0.65
2023-01-30T21:55:07.720Z,0.40
2023-01-30T21:57:36.555Z,0.45
2023-01-30T22:00:05.957Z,0.60
2023-01-30T22:02:34.220Z,0.60
2023-01-30T22:05:02.479Z,0.70
2023-01-30T22:07:31.980Z,0.65
2023-01-30T22:10:02.427Z,0.50
2023-01-30T22:12:32.530Z,0.50
2023-01-30T22:15:00.856Z,0.50
2023-01-30T22:17:29.231Z,0.50
2023-01-30T22:19:57.540Z,0.60
2023-01-30T22:22:26.513Z,0.60
2023-01-30T22:24:54.902Z,0.50
2023-01-30T22:27:23.179Z,0.70
2023-01-30T22:29:51.703Z,0.80
2023-01-30T22:32:20.017Z,0.73
2023-01-30T22:34:48.337Z,0.82
2023-01-30T22:37:17.270Z,0.52
2023-01-30T22:39:45.821Z,0.70
2023-01-30T22:42:14.631Z,0.60
2023-01-30T22:44:42.978Z,0.63
2023-01-30T22:47:11.401Z,0.60
2023-01-30T22:49:40.483Z,0.60
2023-01-30T22:52:08.789Z,0.40
2023-01-30T22:54:37.233Z,0.60
2023-01-30T22:57:05.579Z,0.75
2023-01-30T22:59:33.900Z,0.50
2023-01-30T23:02:02.305Z,0.68
2023-01-30T23:04:30.691Z,0.60
2023-01-30T23:07:00.435Z,0.52
2023-01-30T23:09:28.800Z,0.63
2023-01-30T23:12:16.778Z,0.50
2023-01-30T23:14:46.389Z,0.55
2023-01-30T23:17:32.806Z,0.52
2023-01-30T23:20:01.157Z,0.60
2023-01-30T23:22:29.538Z,0.63
2023-01-30T23:24:57.898Z,0.47
2023-01-30T23:27:26.740Z,0.50
2023-01-30T23:29:54.992Z,0.57
2023-01-30T23:32:24.599Z,0.52
2023-01-30T23:34:52.994Z,0.50
2023-01-30T23:37:41.124Z,0.57
2023-01-30T23:40:10.245Z,0.50
2023-01-30T23:42:38.820Z,0.50
2023-01-30T23:45:07.573Z,0.50
2023-01-30T23:47:36.249Z,0.98
2023-01-30T23:50:04.736Z,0.50
2023-01-30T23:52:33.179Z,0.70
2023-01-30T23:55:01.490Z,0.73
2023-01-30T23:57:29.839Z,0.55
2023-01-30T23:59:58.130Z,0.50
